Time;durP1;ratioP1;P1;durP2;ratioP2;P2;SDS_P1;SDS_P2;PMS_P1;PMS_P2;Temp;Humidity;BMP_temperature;BMP_pressure;BME280_temperature;BME280_humidity;BME280_pressure;Samples;Min_cycle;Max_cycle;Signal;HPM_P1;HPM_P2
2021/01/23 18:08:54;;;;;;;9.75;5.53;;;20.20;45.00;;;;;;10585024;27;20339;-69
2021/01/23 18:13:57;;;;;;;9.30;5.78;;;14.50;52.20;;;;;;10562147;28;20058;-68
2021/01/23 18:18:58;;;;;;;10.68;6.65;;;11.30;57.90;;;;;;10560746;28;20047;-68
2021/01/23 18:24:00;;;;;;;8.98;6.32;;;9.40;62.90;;;;;;10561803;28;20062;-69
2021/01/23 18:29:03;;;;;;;12.57;7.38;;;8.30;66.90;;;;;;10561301;28;20062;-68
2021/01/23 18:34:04;;;;;;;12.18;8.18;;;7.70;69.30;;;;;;10543900;28;20072;-68
2021/01/23 18:39:07;;;;;;;11.00;8.93;;;7.40;72.80;;;;;;10560997;28;20052;-68
2021/01/23 18:44:09;;;;;;;14.57;9.77;;;7.10;74.10;;;;;;10543207;28;20048;-68
2021/01/23 18:49:11;;;;;;;15.38;9.40;;;7.00;77.20;;;;;;10559895;28;20407;-68
2021/01/23 18:54:13;;;;;;;18.42;10.32;;;6.80;80.10;;;;;;10560811;28;20055;-68
2021/01/23 18:59:15;;;;;;;15.43;10.00;;;6.80;82.80;;;;;;10560241;28;20073;-68
2021/01/23 19:04:18;;;;;;;12.55;9.48;;;6.70;85.10;;;;;;10535806;28;20538;-68
2021/01/23 19:09:22;;;;;;;15.00;9.57;;;6.80;88.40;;;;;;10558879;28;20048;-68
2021/01/23 19:14:24;;;;;;;10.27;7.88;;;6.60;90.40;;;;;;10539017;28;20045;-68
2021/01/23 19:19:25;;;;;;;13.57;7.80;;;6.50;91.50;;;;;;10525600;28;20048;-68
2021/01/23 19:24:28;;;;;;;10.73;7.38;;;6.50;92.70;;;;;;10522150;28;20139;-68
2021/01/23 19:29:30;;;;;;;12.13;7.95;;;6.50;93.70;;;;;;10523503;28;20494;-68
2021/01/23 19:34:32;;;;;;;15.48;10.10;;;6.40;95.10;;;;;;10520048;28;20058;-68
2021/01/23 19:39:34;;;;;;;13.30;10.68;;;6.30;97.80;;;;;;10508008;28;20051;-68
2021/01/23 19:44:35;;;;;;;16.35;10.88;;;6.10;99.90;;;;;;10525065;28;20403;-68
2021/01/23 19:49:39;;;;;;;13.32;9.15;;;6.00;99.90;;;;;;10529965;28;20044;-68
2021/01/23 19:54:43;;;;;;;14.65;10.65;;;5.90;99.90;;;;;;10530804;28;20404;-68
2021/01/23 19:59:45;;;;;;;11.88;8.10;;;6.00;99.90;;;;;;10523152;28;20040;-68
2021/01/23 20:04:46;;;;;;;8.45;6.35;;;6.00;99.90;;;;;;10531601;28;20147;-68
2021/01/23 20:09:47;;;;;;;7.93;4.78;;;6.00;99.90;;;;;;10532470;28;20048;-68
2021/01/23 20:14:49;;;;;;;9.13;5.82;;;5.90;99.90;;;;;;10530524;28;20507;-68
2021/01/23 20:19:50;;;;;;;10.55;5.75;;;5.90;99.90;;;;;;10531440;28;20500;-68
2021/01/23 20:24:52;;;;;;;8.52;6.03;;;5.90;99.90;;;;;;10513187;28;20058;-68
2021/01/23 20:29:53;;;;;;;8.90;6.47;;;5.80;99.90;;;;;;10529087;28;20142;-68
2021/01/23 20:34:54;;;;;;;9.27;6.63;;;5.90;99.90;;;;;;10531033;28;20048;-68
2021/01/23 20:39:56;;;;;;;12.25;7.03;;;5.90;99.90;;;;;;10530945;28;20052;-68
2021/01/23 20:44:58;;;;;;;9.25;6.75;;;5.90;99.90;;;;;;10511028;28;20133;-68
2021/01/23 20:50:00;;;;;;;9.23;6.85;;;6.00;99.90;;;;;;10530064;28;20522;-68
2021/01/23 20:55:03;;;;;;;9.70;6.85;;;6.00;99.90;;;;;;10528828;28;20079;-68
2021/01/23 21:00:07;;;;;;;9.95;7.40;;;6.10;99.90;;;;;;10528084;28;20055;-68
2021/01/23 21:05:10;;;;;;;10.70;7.80;;;6.10;99.90;;;;;;10528856;28;20147;-68
2021/01/23 21:10:12;;;;;;;11.07;8.35;;;6.10;99.90;;;;;;10529831;28;20044;-68
2021/01/23 21:15:14;;;;;;;11.55;8.80;;;6.10;99.90;;;;;;10528219;28;20048;-68
2021/01/23 21:20:16;;;;;;;11.70;8.52;;;6.10;99.90;;;;;;10527353;28;20063;-68
2021/01/23 21:25:18;;;;;;;13.00;8.73;;;6.10;99.90;;;;;;10529067;28;20055;-68
2021/01/23 21:30:20;;;;;;;11.07;9.23;;;6.10;99.90;;;;;;10528490;28;20496;-68
2021/01/23 21:35:23;;;;;;;12.82;10.15;;;6.20;99.90;;;;;;10528276;28;20136;-68
2021/01/23 21:40:25;;;;;;;13.20;10.13;;;6.10;99.90;;;;;;10527968;28;20080;-69
2021/01/23 21:45:26;;;;;;;12.85;10.07;;;6.10;99.90;;;;;;10527701;28;20056;-68
2021/01/23 21:50:28;;;;;;;12.18;9.60;;;6.10;99.90;;;;;;10527656;28;20137;-68
2021/01/23 21:55:30;;;;;;;13.77;10.68;;;6.20;99.90;;;;;;10527978;28;20048;-68
2021/01/23 22:00:31;;;;;;;12.35;9.48;;;6.20;99.90;;;;;;10527027;28;20052;-68
2021/01/23 22:05:33;;;;;;;13.32;11.10;;;6.30;99.90;;;;;;10526110;28;20092;-68
2021/01/23 22:10:35;;;;;;;14.20;11.23;;;6.20;99.90;;;;;;10528267;28;20071;-68
2021/01/23 22:15:36;;;;;;;14.82;12.40;;;6.20;99.90;;;;;;10527266;28;20090;-68
2021/01/23 22:20:37;;;;;;;15.25;11.23;;;6.20;99.90;;;;;;10527831;28;20496;-68
2021/01/23 22:25:39;;;;;;;12.82;9.85;;;6.20;99.90;;;;;;10527622;28;20571;-68
2021/01/23 22:30:40;;;;;;;11.07;9.68;;;6.20;99.90;;;;;;10526846;28;20080;-69
2021/01/23 22:35:43;;;;;;;14.02;11.23;;;6.10;99.90;;;;;;10527560;28;20051;-69
2021/01/23 22:40:44;;;;;;;17.45;14.27;;;6.00;99.90;;;;;;10527386;28;20040;-69
2021/01/23 22:45:46;;;;;;;18.10;14.75;;;5.80;99.90;;;;;;10526328;28;20048;-70
2021/01/23 22:50:47;;;;;;;16.88;13.75;;;5.90;99.90;;;;;;10526863;28;20071;-69
2021/01/23 22:55:49;;;;;;;16.42;13.70;;;6.00;99.90;;;;;;10534748;28;20292;-69
2021/01/23 23:00:56;;;;;;;13.80;12.02;;;6.00;99.90;;;;;;10534032;28;20131;-69
2021/01/23 23:05:58;;;;;;;14.15;12.55;;;6.10;99.90;;;;;;10534102;28;20048;-69
2021/01/23 23:11:00;;;;;;;20.77;16.40;;;6.10;99.90;;;;;;10534129;28;20051;-69
2021/01/23 23:16:01;;;;;;;20.63;16.33;;;6.00;99.90;;;;;;10533624;28;20048;-68
2021/01/23 23:21:03;;;;;;;20.98;16.98;;;5.90;99.90;;;;;;10533456;28;20075;-69
2021/01/23 23:26:06;;;;;;;21.15;17.25;;;5.90;99.90;;;;;;10533937;28;20056;-68
2021/01/23 23:31:08;;;;;;;23.10;18.92;;;5.90;99.90;;;;;;10514669;28;20550;-68
2021/01/23 23:36:09;;;;;;;17.52;15.23;;;6.00;99.90;;;;;;10533137;28;20457;-69
2021/01/23 23:41:11;;;;;;;16.35;13.68;;;5.90;99.90;;;;;;10514985;28;20054;-69
2021/01/23 23:46:12;;;;;;;14.13;12.60;;;5.90;99.90;;;;;;10532272;28;20519;-69
2021/01/23 23:51:14;;;;;;;14.20;12.35;;;5.80;99.90;;;;;;10532465;28;20048;-68
2021/01/23 23:56:16;;;;;;;14.20;11.98;;;5.80;99.90;;;;;;10532431;28;20420;-68
